createdAt,value
2022-12-09T00:02:12.856Z,4.82
2022-12-09T00:04:42.946Z,4.78
2022-12-09T00:07:10.902Z,4.78
2022-12-09T00:09:39.288Z,4.74
2022-12-09T00:12:07.415Z,4.74
2022-12-09T00:14:35.642Z,4.73
2022-12-09T00:17:03.954Z,4.68
2022-12-09T00:19:34.370Z,4.64
2022-12-09T00:22:03.601Z,4.52
2022-12-09T00:24:31.811Z,4.48
2022-12-09T00:26:59.800Z,4.45
2022-12-09T00:29:28.000Z,4.43
2022-12-09T00:31:56.282Z,4.42
2022-12-09T00:34:24.757Z,4.43
2022-12-09T00:36:52.917Z,4.42
2022-12-09T00:39:22.481Z,4.41
2022-12-09T00:41:51.629Z,4.41
2022-12-09T00:44:20.212Z,4.41
2022-12-09T00:46:48.486Z,4.43
2022-12-09T00:49:16.754Z,4.44
2022-12-09T00:51:45.123Z,4.47
2022-12-09T00:54:13.184Z,4.48
2022-12-09T00:56:42.712Z,4.48
2022-12-09T00:59:10.865Z,4.50
2022-12-09T01:01:39.270Z,4.50
2022-12-09T01:04:09.193Z,4.50
2022-12-09T01:06:37.914Z,4.49
2022-12-09T01:09:06.119Z,4.50
2022-12-09T01:11:34.995Z,4.51
2022-12-09T01:14:05.212Z,4.50
2022-12-09T01:16:35.139Z,4.48
2022-12-09T01:19:05.274Z,4.45
2022-12-09T01:21:34.982Z,4.43
2022-12-09T01:24:07.654Z,4.35
2022-12-09T01:26:36.319Z,4.25
2022-12-09T01:29:05.825Z,4.19
2022-12-09T01:31:34.287Z,4.05
2022-12-09T01:34:04.091Z,3.95
2022-12-09T01:36:32.646Z,3.85
2022-12-09T01:39:01.465Z,3.78
2022-12-09T01:41:29.709Z,3.70
2022-12-09T01:44:14.782Z,3.65
2022-12-09T01:46:45.458Z,3.60
2022-12-09T01:49:16.684Z,3.58
2022-12-09T01:51:46.983Z,3.51
2022-12-09T01:54:16.132Z,3.45
2022-12-09T01:56:45.938Z,3.41
2022-12-09T01:59:16.658Z,3.37
2022-12-09T02:01:47.162Z,3.37
2022-12-09T02:04:15.449Z,3.32
2022-12-09T02:06:44.029Z,3.25
2022-12-09T02:09:13.335Z,3.19
2022-12-09T02:11:53.257Z,3.12
2022-12-09T02:14:25.746Z,3.03
2022-12-09T02:17:01.646Z,3.03
2022-12-09T02:19:44.560Z,2.97
2022-12-09T02:22:15.605Z,2.92
2022-12-09T02:24:52.907Z,2.91
2022-12-09T02:27:26.395Z,2.89
2022-12-09T02:30:06.048Z,2.89
2022-12-09T02:32:48.653Z,2.89
2022-12-09T02:35:21.874Z,2.88
2022-12-09T02:37:53.319Z,2.88
2022-12-09T02:40:25.009Z,2.87
2022-12-09T02:42:53.788Z,2.83
2022-12-09T02:45:22.110Z,2.78
2022-12-09T02:47:54.812Z,2.74
2022-12-09T02:50:26.746Z,2.69
2022-12-09T02:52:57.446Z,2.69
2022-12-09T02:55:26.238Z,2.63
2022-12-09T02:57:58.338Z,2.57
2022-12-09T03:00:27.273Z,2.52
2022-12-09T03:03:00.741Z,2.47
2022-12-09T03:05:39.449Z,2.43
2022-12-09T03:08:15.147Z,2.39
2022-12-09T03:10:46.791Z,2.39
2022-12-09T03:13:17.013Z,2.36
2022-12-09T03:15:47.405Z,2.34
2022-12-09T03:18:18.469Z,2.32
2022-12-09T03:20:49.769Z,2.32
2022-12-09T03:23:19.186Z,2.33
2022-12-09T03:25:49.491Z,2.30
2022-12-09T03:28:20.834Z,2.32
2022-12-09T03:30:49.027Z,2.33
2022-12-09T03:33:19.672Z,2.37
2022-12-09T03:35:51.858Z,2.38
2022-12-09T03:38:22.319Z,2.40
2022-12-09T03:40:53.189Z,2.44
2022-12-09T03:43:24.655Z,2.45
2022-12-09T03:45:53.099Z,2.43
2022-12-09T03:48:21.644Z,2.45
2022-12-09T03:50:56.780Z,2.44
2022-12-09T03:53:28.322Z,2.47
2022-12-09T03:55:59.307Z,2.48
2022-12-09T03:58:29.576Z,2.51
2022-12-09T04:00:57.596Z,2.55
2022-12-09T04:03:27.546Z,2.58
2022-12-09T04:05:58.017Z,2.60
2022-12-09T04:08:26.187Z,2.63
2022-12-09T04:10:54.597Z,2.64
2022-12-09T04:13:23.062Z,2.68
2022-12-09T04:15:51.347Z,2.71
2022-12-09T04:18:20.910Z,2.73
2022-12-09T04:20:49.034Z,2.75
2022-12-09T04:23:18.768Z,2.76
2022-12-09T04:25:46.697Z,2.75
2022-12-09T04:28:15.166Z,2.75
2022-12-09T04:30:46.323Z,2.74
2022-12-09T04:33:15.939Z,2.73
2022-12-09T04:35:43.852Z,2.71
2022-12-09T04:38:12.264Z,2.71
2022-12-09T04:40:41.562Z,2.70
2022-12-09T04:43:10.099Z,2.72
2022-12-09T04:45:38.431Z,2.73
2022-12-09T04:48:07.555Z,2.77
2022-12-09T04:50:35.834Z,2.80
2022-12-09T04:53:04.423Z,2.77
2022-12-09T04:55:32.379Z,2.73
2022-12-09T04:58:02.420Z,2.71
2022-12-09T05:00:30.716Z,2.66
2022-12-09T05:02:58.996Z,2.58
2022-12-09T05:05:27.145Z,2.51
2022-12-09T05:07:56.038Z,2.47
2022-12-09T05:10:24.538Z,2.42
2022-12-09T05:12:53.390Z,2.37
2022-12-09T05:15:23.094Z,2.32
2022-12-09T05:17:51.424Z,2.29
2022-12-09T05:20:20.030Z,2.28
2022-12-09T05:22:48.361Z,2.26
2022-12-09T05:25:16.381Z,2.23
2022-12-09T05:27:44.583Z,2.22
2022-12-09T05:30:13.781Z,2.19
2022-12-09T05:32:44.101Z,2.19
2022-12-09T05:35:12.181Z,2.18
2022-12-09T05:37:40.660Z,2.14
2022-12-09T05:40:10.169Z,2.15
2022-12-09T05:42:41.723Z,2.16
2022-12-09T05:45:11.932Z,2.15
2022-12-09T05:47:40.987Z,2.15
2022-12-09T05:50:11.787Z,2.13
2022-12-09T05:52:41.488Z,2.10
2022-12-09T05:55:11.395Z,2.12
2022-12-09T05:57:40.346Z,2.16
2022-12-09T06:00:10.016Z,2.17
2022-12-09T06:02:42.497Z,2.19
2022-12-09T06:05:12.256Z,2.22
2022-12-09T06:07:41.064Z,2.24
2022-12-09T06:10:10.559Z,2.22
2022-12-09T06:12:39.919Z,2.22
2022-12-09T06:15:10.603Z,2.23
2022-12-09T06:17:40.177Z,2.21
2022-12-09T06:20:09.476Z,2.21
2022-12-09T06:22:39.648Z,2.18
2022-12-09T06:25:08.988Z,2.16
2022-12-09T06:27:37.867Z,2.14
2022-12-09T06:30:07.736Z,2.13
2022-12-09T06:32:36.132Z,2.11
2022-12-09T06:35:05.323Z,2.05
2022-12-09T06:37:33.915Z,2.03
2022-12-09T06:40:03.329Z,2.00
2022-12-09T06:42:31.958Z,1.97
2022-12-09T06:44:59.988Z,1.97
2022-12-09T06:47:28.436Z,1.99
2022-12-09T06:50:04.388Z,2.00
2022-12-09T06:52:35.416Z,2.01
2022-12-09T06:55:06.403Z,2.05
2022-12-09T06:57:35.259Z,2.06
2022-12-09T07:00:04.273Z,2.07
2022-12-09T07:02:36.034Z,2.07
2022-12-09T07:05:06.644Z,2.06
2022-12-09T07:07:36.224Z,2.03
2022-12-09T07:10:09.678Z,1.99
2022-12-09T07:12:38.350Z,1.96
2022-12-09T07:15:07.645Z,1.95
2022-12-09T07:17:36.179Z,1.92
2022-12-09T07:20:07.497Z,1.89
2022-12-09T07:22:40.832Z,1.86
2022-12-09T07:25:11.180Z,1.83
2022-12-09T07:27:41.034Z,1.84
2022-12-09T07:30:10.242Z,1.90
2022-12-09T07:32:38.698Z,2.05
2022-12-09T07:35:08.578Z,2.15
2022-12-09T07:37:37.424Z,2.23
2022-12-09T07:40:06.738Z,2.30
2022-12-09T07:42:36.660Z,2.37
2022-12-09T07:45:10.580Z,2.43
2022-12-09T07:47:39.240Z,2.45
2022-12-09T07:50:09.146Z,2.36
2022-12-09T07:52:37.765Z,2.24
2022-12-09T07:55:07.767Z,2.14
2022-12-09T07:57:38.704Z,2.05
2022-12-09T08:00:08.184Z,1.98
2022-12-09T08:02:40.280Z,1.94
2022-12-09T08:05:10.100Z,1.96
2022-12-09T08:07:44.210Z,2.01
2022-12-09T08:10:13.327Z,2.06
2022-12-09T08:12:43.741Z,2.14
2022-12-09T08:15:13.206Z,2.20
2022-12-09T08:17:42.037Z,2.24
2022-12-09T08:20:11.178Z,2.31
2022-12-09T08:22:39.843Z,2.37
2022-12-09T08:25:08.902Z,2.41
2022-12-09T08:27:38.130Z,2.44
2022-12-09T08:30:09.471Z,2.49
2022-12-09T08:32:38.064Z,2.55
2022-12-09T08:35:07.393Z,2.59
2022-12-09T08:37:35.785Z,2.64
2022-12-09T08:40:04.207Z,2.71
2022-12-09T08:42:32.873Z,2.72
2022-12-09T08:45:02.908Z,2.73
2022-12-09T08:47:34.598Z,2.73
2022-12-09T08:50:03.085Z,2.76
2022-12-09T08:52:34.581Z,2.80
2022-12-09T08:55:07.808Z,2.87
2022-12-09T08:57:36.651Z,3.02
2022-12-09T09:00:05.436Z,3.15
2022-12-09T09:02:36.258Z,3.24
2022-12-09T09:05:05.152Z,3.33
2022-12-09T09:07:33.921Z,3.40
2022-12-09T09:10:02.549Z,3.47
2022-12-09T09:12:33.716Z,3.51
2022-12-09T09:15:06.511Z,3.60
2022-12-09T09:17:37.481Z,3.70
2022-12-09T09:20:07.832Z,3.77
2022-12-09T09:22:37.169Z,3.87
2022-12-09T09:25:06.567Z,3.94
2022-12-09T09:27:36.013Z,3.97
2022-12-09T09:30:07.403Z,4.05
2022-12-09T09:32:38.028Z,4.12
2022-12-09T09:35:06.572Z,4.18
2022-12-09T09:37:35.643Z,4.27
2022-12-09T09:40:07.052Z,4.28
2022-12-09T09:42:37.985Z,4.29
2022-12-09T09:45:08.678Z,4.30
2022-12-09T09:47:42.407Z,4.31
2022-12-09T09:50:21.291Z,4.32
2022-12-09T09:52:51.289Z,4.34
2022-12-09T09:55:20.587Z,4.39
2022-12-09T09:57:53.169Z,4.41
2022-12-09T10:00:23.740Z,4.38
2022-12-09T10:02:59.832Z,4.36
2022-12-09T10:05:32.102Z,4.30
2022-12-09T10:08:15.427Z,4.28
2022-12-09T10:10:50.423Z,4.24
2022-12-09T10:13:28.893Z,4.20
2022-12-09T10:16:02.812Z,4.22
2022-12-09T10:18:37.904Z,4.22
2022-12-09T10:21:16.399Z,4.30
2022-12-09T10:23:47.066Z,4.35
2022-12-09T10:26:18.642Z,4.42
2022-12-09T10:28:49.010Z,4.53
2022-12-09T10:31:17.313Z,4.64
2022-12-09T10:33:47.200Z,4.74
2022-12-09T10:36:24.255Z,4.81
2022-12-09T10:38:54.015Z,4.87
2022-12-09T10:41:53.233Z,4.93
2022-12-09T10:44:23.955Z,5.05
2022-12-09T10:46:58.348Z,5.20
2022-12-09T10:49:28.753Z,5.36
2022-12-09T10:51:57.499Z,5.44
2022-12-09T10:54:33.626Z,5.53
2022-12-09T10:57:07.629Z,5.59
2022-12-09T10:59:37.469Z,5.63
2022-12-09T11:02:22.210Z,5.65
2022-12-09T11:04:52.817Z,5.66
2022-12-09T11:07:23.088Z,5.69
2022-12-09T11:09:53.448Z,5.71
2022-12-09T11:12:39.886Z,5.74
2022-12-09T11:15:26.376Z,5.76
2022-12-09T11:18:00.439Z,5.78
2022-12-09T11:20:32.685Z,5.77
2022-12-09T11:23:05.268Z,5.78
2022-12-09T11:25:35.242Z,5.79
2022-12-09T11:28:06.051Z,5.81
2022-12-09T11:30:38.786Z,5.95
2022-12-09T11:33:25.687Z,6.51
2022-12-09T11:35:59.209Z,7.25
2022-12-09T11:38:33.086Z,7.94
2022-12-09T11:41:04.715Z,8.31
2022-12-09T11:43:36.480Z,8.44
2022-12-09T11:46:16.700Z,8.33
2022-12-09T11:48:50.896Z,8.79
2022-12-09T11:51:28.104Z,8.82
2022-12-09T11:54:03.953Z,8.88
2022-12-09T11:56:34.413Z,9.12
2022-12-09T11:59:06.221Z,8.83
2022-12-09T12:01:46.909Z,8.80
2022-12-09T12:04:18.325Z,8.94
2022-12-09T12:06:53.503Z,8.80
2022-12-09T12:09:25.048Z,8.63
2022-12-09T12:12:00.522Z,8.91
2022-12-09T12:14:30.128Z,9.47
2022-12-09T12:17:05.625Z,9.80
2022-12-09T12:19:36.109Z,9.97
2022-12-09T12:22:39.681Z,10.49
2022-12-09T12:25:22.831Z,10.46
2022-12-09T12:28:14.282Z,10.66
2022-12-09T12:30:47.548Z,10.33
2022-12-09T12:36:25.062Z,10.86
2022-12-09T12:39:07.841Z,10.47
2022-12-09T12:41:40.313Z,10.22
2022-12-09T12:44:41.940Z,10.62
2022-12-09T12:47:14.816Z,10.54
2022-12-09T12:49:53.970Z,10.39
2022-12-09T12:55:37.420Z,10.36
2022-12-09T12:58:12.292Z,10.30
2022-12-09T13:00:49.923Z,10.13
2022-12-09T13:03:23.017Z,10.08
2022-12-09T13:05:56.080Z,10.21
2022-12-09T13:08:29.362Z,10.10
2022-12-09T13:11:01.959Z,9.99
2022-12-09T13:13:32.240Z,10.06
2022-12-09T13:16:04.778Z,10.10
2022-12-09T13:18:36.116Z,10.21
2022-12-09T13:21:08.311Z,10.02
2022-12-09T13:23:52.562Z,9.73
2022-12-09T13:26:28.138Z,9.54
2022-12-09T13:29:02.253Z,9.50
2022-12-09T13:31:32.115Z,9.38
2022-12-09T13:34:12.249Z,9.50
2022-12-09T13:36:43.045Z,9.40
2022-12-09T13:39:12.799Z,9.38
2022-12-09T13:42:01.849Z,9.36
2022-12-09T13:44:33.533Z,9.44
2022-12-09T13:47:15.556Z,9.38
2022-12-09T13:49:43.581Z,9.34
2022-12-09T13:52:11.680Z,9.54
2022-12-09T13:54:48.257Z,9.83
2022-12-09T13:57:24.940Z,10.16
2022-12-09T13:59:53.400Z,10.21
2022-12-09T14:02:26.279Z,10.33
2022-12-09T14:05:00.912Z,10.37
2022-12-09T14:07:34.650Z,10.26
2022-12-09T14:10:03.981Z,10.12
2022-12-09T14:13:04.466Z,9.88
2022-12-09T14:15:37.884Z,9.78
2022-12-09T14:18:27.380Z,9.73
2022-12-09T14:21:29.256Z,9.88
2022-12-09T14:24:32.380Z,9.79
2022-12-09T14:27:17.761Z,9.53
2022-12-09T14:29:57.379Z,9.20
2022-12-09T14:32:29.945Z,8.98
2022-12-09T14:35:08.168Z,8.68
2022-12-09T14:37:46.863Z,8.35
2022-12-09T14:40:32.437Z,8.02
2022-12-09T14:43:19.420Z,7.69
2022-12-09T14:45:52.843Z,7.45
2022-12-09T14:48:22.632Z,7.19
2022-12-09T14:51:07.500Z,6.93
2022-12-09T14:53:36.745Z,6.78
2022-12-09T14:56:06.012Z,6.56
2022-12-09T14:58:34.173Z,6.36
2022-12-09T15:01:05.388Z,6.30
2022-12-09T15:03:39.577Z,6.26
2022-12-09T15:06:18.251Z,6.19
2022-12-09T15:08:47.429Z,6.16
2022-12-09T15:11:18.603Z,6.13
2022-12-09T15:13:49.416Z,6.14
2022-12-09T15:16:21.901Z,6.11
2022-12-09T15:18:50.580Z,6.07
2022-12-09T15:21:27.722Z,6.01
2022-12-09T15:23:56.060Z,5.95
2022-12-09T15:26:27.518Z,5.91
2022-12-09T15:28:57.277Z,5.86
2022-12-09T15:31:28.698Z,5.77
2022-12-09T15:34:03.818Z,5.71
2022-12-09T15:36:36.521Z,5.70
2022-12-09T15:39:07.819Z,5.68
2022-12-09T15:41:57.416Z,5.63
2022-12-09T15:44:26.310Z,5.60
2022-12-09T15:46:56.614Z,5.60
2022-12-09T15:49:29.784Z,5.55
2022-12-09T15:51:58.911Z,5.50
2022-12-09T15:54:30.422Z,5.45
2022-12-09T15:57:00.135Z,5.38
2022-12-09T15:59:31.265Z,5.35
2022-12-09T16:02:01.605Z,5.27
2022-12-09T16:04:33.229Z,5.24
2022-12-09T16:07:05.936Z,5.17
2022-12-09T16:09:34.182Z,5.12
2022-12-09T16:12:02.446Z,5.10
2022-12-09T16:14:42.452Z,5.09
2022-12-09T16:17:21.058Z,5.06
2022-12-09T16:19:49.319Z,5.00
2022-12-09T16:22:22.952Z,4.97
2022-12-09T16:27:45.948Z,4.90
2022-12-09T16:30:16.031Z,4.89
2022-12-09T16:32:46.517Z,4.90
2022-12-09T16:35:20.854Z,4.90
2022-12-09T16:38:18.813Z,4.90
2022-12-09T16:41:01.304Z,4.87
2022-12-09T16:43:31.663Z,4.84
2022-12-09T16:46:01.066Z,4.79
2022-12-09T16:48:31.410Z,4.77
2022-12-09T16:51:05.150Z,4.72
2022-12-09T16:53:36.472Z,4.68
2022-12-09T16:56:05.187Z,4.63
2022-12-09T16:58:35.962Z,4.58
2022-12-09T17:01:04.435Z,4.56
2022-12-09T17:03:42.429Z,4.56
2022-12-09T17:06:17.808Z,4.52
2022-12-09T17:08:46.330Z,4.51
2022-12-09T17:11:16.841Z,4.47
2022-12-09T17:13:45.188Z,4.48
2022-12-09T17:16:13.714Z,4.46
2022-12-09T17:18:43.537Z,4.46
2022-12-09T17:21:13.286Z,4.45
2022-12-09T17:23:42.389Z,4.43
2022-12-09T17:26:12.813Z,4.41
2022-12-09T17:28:41.995Z,4.41
2022-12-09T17:31:11.110Z,4.38
2022-12-09T17:33:39.563Z,4.34
2022-12-09T17:36:10.554Z,4.33
2022-12-09T17:38:38.829Z,4.33
2022-12-09T17:41:08.106Z,4.32
2022-12-09T17:43:36.975Z,4.30
2022-12-09T17:46:06.511Z,4.26
2022-12-09T17:48:36.282Z,4.22
2022-12-09T17:51:09.393Z,4.19
2022-12-09T17:53:38.132Z,4.15
2022-12-09T17:56:07.678Z,4.11
2022-12-09T17:58:35.900Z,4.10
2022-12-09T18:01:03.976Z,4.04
2022-12-09T18:03:54.771Z,4.01
2022-12-09T18:06:21.725Z,4.00
2022-12-09T18:08:49.872Z,3.99
2022-12-09T18:11:17.782Z,3.96
2022-12-09T18:13:46.636Z,3.90
2022-12-09T18:16:15.039Z,3.85
2022-12-09T18:18:43.499Z,3.80
2022-12-09T18:21:15.645Z,3.81
2022-12-09T18:23:46.163Z,3.83
2022-12-09T18:26:15.861Z,3.85
2022-12-09T18:28:44.639Z,3.84
2022-12-09T18:31:14.901Z,3.83
2022-12-09T18:33:43.773Z,3.81
2022-12-09T18:36:13.759Z,3.84
2022-12-09T18:38:42.925Z,3.84
2022-12-09T18:41:13.478Z,3.84
2022-12-09T18:43:44.275Z,3.84
2022-12-09T18:46:17.109Z,3.80
2022-12-09T18:48:47.497Z,3.78
2022-12-09T18:51:16.628Z,3.79
2022-12-09T18:53:45.575Z,3.78
2022-12-09T18:56:15.770Z,3.78
2022-12-09T18:59:05.463Z,3.80
2022-12-09T19:01:34.092Z,3.79
2022-12-09T19:04:03.852Z,3.79
2022-12-09T19:06:36.146Z,3.78
2022-12-09T19:09:06.507Z,3.79
2022-12-09T19:11:37.253Z,3.77
2022-12-09T19:14:07.546Z,3.74
2022-12-09T19:16:36.206Z,3.74
2022-12-09T19:19:09.618Z,3.74
2022-12-09T19:21:39.154Z,3.74
2022-12-09T19:24:08.808Z,3.77
2022-12-09T19:26:38.476Z,3.78
2022-12-09T19:29:09.095Z,3.79
2022-12-09T19:31:38.640Z,3.79
2022-12-09T19:34:08.829Z,3.77
2022-12-09T19:36:36.846Z,3.76
2022-12-09T19:39:08.106Z,3.76
2022-12-09T19:41:37.746Z,3.74
2022-12-09T19:44:06.561Z,3.73
2022-12-09T19:46:35.320Z,3.72
2022-12-09T19:49:03.667Z,3.71
2022-12-09T19:51:32.223Z,3.72
2022-12-09T19:54:01.798Z,3.69
2022-12-09T19:56:30.655Z,3.70
2022-12-09T19:59:00.966Z,3.71
2022-12-09T20:01:31.216Z,3.71
2022-12-09T20:04:13.573Z,3.72
2022-12-09T20:06:49.064Z,3.71
2022-12-09T20:09:23.944Z,3.70
2022-12-09T20:11:52.549Z,3.67
2022-12-09T20:14:22.298Z,3.66
2022-12-09T20:16:52.190Z,3.64
2022-12-09T20:19:20.424Z,3.64
2022-12-09T20:21:48.730Z,3.64
2022-12-09T20:24:19.362Z,3.62
2022-12-09T20:26:47.302Z,3.61
2022-12-09T20:29:15.449Z,3.62
2022-12-09T20:31:44.840Z,3.61
2022-12-09T20:34:15.907Z,3.58
2022-12-09T20:36:45.308Z,3.55
2022-12-09T20:39:15.644Z,3.54
2022-12-09T20:41:44.390Z,3.54
2022-12-09T20:44:13.923Z,3.53
2022-12-09T20:46:45.753Z,3.51
2022-12-09T20:49:14.411Z,3.50
2022-12-09T20:51:45.088Z,3.52
2022-12-09T20:54:13.946Z,3.52
2022-12-09T20:56:42.186Z,3.49
2022-12-09T20:59:11.776Z,3.48
2022-12-09T21:01:39.958Z,3.48
2022-12-09T21:04:11.112Z,3.50
2022-12-09T21:06:40.172Z,3.50
2022-12-09T21:09:10.723Z,3.52
2022-12-09T21:11:39.476Z,3.51
2022-12-09T21:14:08.101Z,3.51
2022-12-09T21:16:38.699Z,3.48
2022-12-09T21:19:10.178Z,3.46
2022-12-09T21:21:41.696Z,3.45
2022-12-09T21:24:11.292Z,3.39
2022-12-09T21:26:39.729Z,3.39
2022-12-09T21:29:08.682Z,3.38
2022-12-09T21:31:38.346Z,3.38
2022-12-09T21:34:07.865Z,3.40
2022-12-09T21:36:37.383Z,3.41
2022-12-09T21:39:08.918Z,3.38
2022-12-09T21:41:37.426Z,3.33
2022-12-09T21:44:06.425Z,3.30
2022-12-09T21:46:36.881Z,3.28
2022-12-09T21:49:07.136Z,3.26
2022-12-09T21:51:35.515Z,3.25
2022-12-09T21:54:05.029Z,3.25
2022-12-09T21:56:35.686Z,3.20
2022-12-09T21:59:06.064Z,3.17
2022-12-09T22:01:35.438Z,3.15
2022-12-09T22:04:05.364Z,3.16
2022-12-09T22:06:33.460Z,3.16
2022-12-09T22:09:02.859Z,3.18
2022-12-09T22:11:36.427Z,3.18
2022-12-09T22:14:05.033Z,3.20
2022-12-09T22:16:34.469Z,3.17
2022-12-09T22:19:03.694Z,3.21
2022-12-09T22:21:34.216Z,3.22
2022-12-09T22:24:04.731Z,3.23
2022-12-09T22:26:33.282Z,3.24
2022-12-09T22:29:04.311Z,3.26
2022-12-09T22:31:35.272Z,3.25
2022-12-09T22:34:05.636Z,3.23
2022-12-09T22:36:34.575Z,3.21
2022-12-09T22:39:02.748Z,3.20
2022-12-09T22:41:30.960Z,3.21
2022-12-09T22:43:59.244Z,3.19
2022-12-09T22:46:30.283Z,3.15
2022-12-09T22:49:01.624Z,3.14
2022-12-09T22:54:14.822Z,3.14
2022-12-09T22:56:44.380Z,3.15
2022-12-09T22:59:13.937Z,3.16
2022-12-09T23:01:44.936Z,3.13
2022-12-09T23:04:14.335Z,3.13
2022-12-09T23:06:42.602Z,3.10
2022-12-09T23:09:14.294Z,3.06
2022-12-09T23:11:42.265Z,3.00
2022-12-09T23:14:10.516Z,2.96
2022-12-09T23:16:38.603Z,2.93
2022-12-09T23:19:08.818Z,2.90
2022-12-09T23:21:38.570Z,2.88
2022-12-09T23:24:10.543Z,2.87
2022-12-09T23:26:40.480Z,2.86
2022-12-09T23:29:14.499Z,2.88
2022-12-09T23:31:43.335Z,2.84
2022-12-09T23:34:14.250Z,2.88
2022-12-09T23:36:43.791Z,2.86
2022-12-09T23:39:13.872Z,2.84
2022-12-09T23:41:43.271Z,2.83
2022-12-09T23:44:13.266Z,2.83
2022-12-09T23:46:41.617Z,2.84
2022-12-09T23:49:14.531Z,2.86
2022-12-09T23:51:44.363Z,2.88
2022-12-09T23:54:14.439Z,2.87
2022-12-09T23:56:47.895Z,2.86
2022-12-09T23:59:16.942Z,2.88
